Terminal Aerodrome Forecast
Issued by NWS Sterling, VA

Current Version | Previous Version | Text Only | Print | Product List | Glossary Off
Versions: 1 2 3 4 5 6 7 8 9 10 11 12 13 14

000
FTUS41 KLWX 131123
TAFMRB
TAF
KMRB 131123Z 1312/1412 32011KT P6SM SCT045
     FM131500 33013G20KT P6SM SCT250
     FM132200 34009KT P6SM SCT250
     FM140200 01005KT P6SM BKN250
     FM140500 04004KT 2SM -SNPL OVC050
     FM140800 VRB03KT 3SM -FZRAPLSN OVC030
     FM141100 10004KT 2SM -SNPL OVC020=

USA.gov is the U.S. government's official web portal to all federal, state and local government web resources and services.